KLAW/LAW METAR and TAF weather

Enter ICAO airport designator
Station Type Date Time Source
KLAW METAR 2019/02/22 22:27 UTC NOAA

KLAW 222227Z 08007KT 1 1/2SM BR OVC007 09/08 A2993 RMK AO2 T00890083


Station Type Date Time Source
KLAW Decoded METAR 2019/02/22 22:27 UTC NOAA

LAWTON - FORT SILL REGIONAL, OK, United States (KLAW) 34-34N 98-25W 337M
Feb 22, 2019 - 05:27 PM EST / 2019.02.22 2227 UTC
Wind: from the E (080 degrees) at 8 MPH (7 KT):0
Visibility: 1 1/2 mile(s):0
Sky conditions: overcast
Weather: mist
Temperature: 48.0 F (8.9 C)
Dew Point: 46.9 F (8.3 C)
Relative Humidity: 96%
Pressure (altimeter): 29.93 in. Hg (1013 hPa)
ob: KLAW 222227Z 08007KT 1 1/2SM BR OVC007 09/08 A2993 RMK AO2 T00890083
cycle: 22

Station Type Date Time Source
KLAW TAF 2019/02/22 18:22 UTC NOAA

TAF KLAW 221720Z 2218/2318 10006KT 5SM BR OVC007
FM230000 11010KT 2SM BR OVC004
FM231000 17010G16KT 6SM RA BR OVC004
FM231200 22020G30KT P6SM SKC


Example: see airport list